Time;durP1;ratioP1;P1;durP2;ratioP2;P2;SDS_P1;SDS_P2;PMS_P1;PMS_P2;Temp;Humidity;BMP_temperature;BMP_pressure;BME280_temperature;BME280_humidity;BME280_pressure;Samples;Min_cycle;Max_cycle;Signal;HPM_P1;HPM_P2
2023/07/22 00:02:11;;;;;;;8.77;3.38;;;48.00;24.20;;;;;;5087394;28;20023;-64
2023/07/22 00:04:37;;;;;;;8.20;2.75;;;47.90;23.80;;;;;;5088424;28;20013;-64
2023/07/22 00:07:05;;;;;;;12.32;3.10;;;47.90;23.50;;;;;;5090725;28;20067;-65
2023/07/22 00:09:34;;;;;;;10.52;2.70;;;47.80;24.10;;;;;;5085725;28;20042;-67
2023/07/22 00:12:02;;;;;;;9.50;2.65;;;47.70;24.10;;;;;;5088513;28;20099;-66
2023/07/22 00:14:28;;;;;;;10.43;2.88;;;47.60;24.10;;;;;;5086525;28;20095;-65
2023/07/22 00:16:55;;;;;;;10.93;2.35;;;47.50;23.90;;;;;;5086868;28;20016;-64
2023/07/22 00:19:21;;;;;;;14.30;3.90;;;47.50;23.00;;;;;;5086878;28;20039;-65
2023/07/22 00:21:47;;;;;;;13.90;6.78;;;47.50;23.60;;;;;;5088866;28;20531;-67
2023/07/22 00:24:14;;;;;;;7.82;4.63;;;47.40;23.40;;;;;;5086238;28;20035;-66
2023/07/22 00:26:42;;;;;;;10.90;2.20;;;47.40;22.90;;;;;;5088939;28;20537;-65
2023/07/22 00:29:08;;;;;;;8.02;2.85;;;47.30;23.40;;;;;;5090054;28;20122;-63
2023/07/22 00:31:35;;;;;;;9.00;2.28;;;47.30;23.50;;;;;;5088199;28;20421;-64
2023/07/22 00:34:01;;;;;;;5.10;2.20;;;47.30;22.90;;;;;;5090339;28;20020;-65
2023/07/22 00:36:29;;;;;;;4.40;1.77;;;47.10;22.90;;;;;;5090307;28;20027;-64
2023/07/22 00:38:55;;;;;;;6.82;2.08;;;47.00;23.20;;;;;;5089235;28;20027;-65
2023/07/22 00:41:21;;;;;;;11.57;2.30;;;47.00;22.90;;;;;;5088005;28;20012;-65
2023/07/22 00:43:48;;;;;;;5.78;2.05;;;47.00;23.80;;;;;;5088968;28;20032;-65
2023/07/22 00:46:14;;;;;;;11.15;2.22;;;46.90;23.50;;;;;;5086798;28;20023;-65
2023/07/22 00:48:42;;;;;;;8.18;2.42;;;46.70;23.40;;;;;;5089240;28;20039;-65
2023/07/22 00:51:08;;;;;;;6.43;2.03;;;46.70;23.30;;;;;;5066510;28;20078;-65
2023/07/22 00:53:35;;;;;;;8.43;2.33;;;46.60;23.90;;;;;;5045504;28;20016;-66
2023/07/22 00:56:01;;;;;;;10.93;2.95;;;46.60;24.00;;;;;;5088143;28;20016;-63
2023/07/22 00:58:27;;;;;;;11.27;2.67;;;46.50;24.30;;;;;;5091874;28;20384;-65
2023/07/22 01:00:54;;;;;;;11.52;2.67;;;46.30;24.00;;;;;;5091539;28;20392;-65
2023/07/22 01:03:20;;;;;;;7.18;2.38;;;46.30;24.10;;;;;;5087315;28;20028;-64
2023/07/22 01:05:48;;;;;;;9.48;2.08;;;46.30;24.30;;;;;;5088404;28;20470;-66
2023/07/22 01:08:15;;;;;;;14.90;2.67;;;46.20;24.00;;;;;;5088992;28;20317;-66
2023/07/22 01:10:42;;;;;;;10.43;2.95;;;46.10;24.30;;;;;;5079745;28;20387;-66
2023/07/22 01:13:08;;;;;;;10.27;2.78;;;46.10;24.30;;;;;;5090208;28;20051;-65
2023/07/22 01:15:35;;;;;;;10.00;2.72;;;46.00;23.80;;;;;;5087474;28;20013;-66
2023/07/22 01:18:03;;;;;;;271.48;22.30;;;45.90;24.50;;;;;;5088136;28;20020;-69
2023/07/22 01:20:30;;;;;;;22.10;3.22;;;45.80;25.00;;;;;;5085749;28;20028;-68
2023/07/22 01:22:57;;;;;;;9.85;2.65;;;45.70;24.00;;;;;;5085843;28;20069;-68
2023/07/22 01:25:24;;;;;;;21.75;3.15;;;45.70;23.90;;;;;;5087150;28;20034;-69
2023/07/22 01:27:53;;;;;;;21.35;3.10;;;45.70;24.70;;;;;;5085609;28;20094;-67
2023/07/22 01:30:20;;;;;;;25.77;3.08;;;45.50;24.50;;;;;;5087541;28;20036;-66
2023/07/22 01:32:50;;;;;;;13.82;2.20;;;45.30;24.20;;;;;;5089242;28;20020;-65
2023/07/22 01:35:16;;;;;;;20.58;3.28;;;45.20;24.00;;;;;;5089395;28;20112;-65
2023/07/22 01:37:43;;;;;;;16.55;2.83;;;45.10;24.30;;;;;;5088769;28;20026;-65
2023/07/22 01:40:13;;;;;;;8.32;2.80;;;44.90;24.20;;;;;;5087592;28;20352;-63
2023/07/22 01:42:40;;;;;;;10.38;2.45;;;44.90;24.80;;;;;;5086311;28;20028;-63
2023/07/22 01:45:11;;;;;;;7.15;2.58;;;44.90;25.10;;;;;;5089379;28;20011;-66
2023/07/22 01:47:39;;;;;;;9.93;2.40;;;44.80;25.20;;;;;;5082893;28;20039;-64
2023/07/22 01:50:07;;;;;;;12.80;2.92;;;44.70;24.90;;;;;;5087685;28;20474;-64
2023/07/22 01:52:44;;;;;;;29.20;3.63;;;44.70;25.50;;;;;;5085455;28;20480;-62
2023/07/22 01:55:14;;;;;;;13.43;2.70;;;45.30;25.90;;;;;;5086193;28;20016;-63
2023/07/22 01:57:41;;;;;;;11.52;2.50;;;45.80;25.10;;;;;;5087830;28;20059;-64
2023/07/22 02:00:10;;;;;;;16.90;3.00;;;46.10;24.50;;;;;;5082839;28;20020;-65
2023/07/22 02:02:37;;;;;;;9.65;2.22;;;46.20;24.70;;;;;;5091498;28;20043;-68
2023/07/22 02:05:04;;;;;;;42.47;3.65;;;46.10;24.30;;;;;;5090276;28;20027;-67
2023/07/22 02:07:31;;;;;;;51.42;3.95;;;46.10;24.70;;;;;;5092148;28;20099;-63
2023/07/22 02:09:58;;;;;;;18.75;2.90;;;45.80;24.50;;;;;;5093718;28;20482;-65
2023/07/22 02:12:27;;;;;;;14.55;3.00;;;45.30;25.30;;;;;;5092946;28;20099;-63
2023/07/22 02:14:53;;;;;;;30.23;4.75;;;44.90;25.70;;;;;;5091120;28;20016;-61
2023/07/22 02:17:23;;;;;;;33.75;3.65;;;44.50;27.20;;;;;;5087512;28;20472;-64
2023/07/22 02:19:50;;;;;;;361.92;27.02;;;44.20;26.40;;;;;;5093201;28;20020;-65
2023/07/22 02:22:35;;;;;;;;;;;;;;;;;;;;;
2023/07/22 02:25:14;;;;;;;49.10;5.90;;;43.80;27.70;;;;;;5096318;28;20026;-63
2023/07/22 02:27:42;;;;;;;24.30;3.85;;;43.60;27.50;;;;;;5077416;28;20491;-65
2023/07/22 02:30:10;;;;;;;19.92;3.30;;;43.40;28.70;;;;;;5079489;28;20032;-69
2023/07/22 02:32:40;;;;;;;16.55;2.90;;;43.20;27.90;;;;;;5085474;28;20027;-67
2023/07/22 02:35:08;;;;;;;13.27;3.10;;;43.10;29.20;;;;;;5090316;28;20024;-67
2023/07/22 02:37:38;;;;;;;10.82;3.03;;;43.00;26.80;;;;;;5084668;28;20097;-66
2023/07/22 02:40:11;;;;;;;33.85;4.50;;;42.80;29.10;;;;;;5091328;28;21498;-68
2023/07/22 02:42:37;;;;;;;32.90;4.60;;;42.70;27.00;;;;;;5091207;28;20024;-72
2023/07/22 02:45:05;;;;;;;20.25;4.22;;;42.70;27.60;;;;;;5091027;28;20081;-63
2023/07/22 02:47:36;;;;;;;29.85;4.22;;;42.60;26.70;;;;;;5088814;28;20095;-66
2023/07/22 02:50:06;;;;;;;28.17;4.15;;;42.60;25.90;;;;;;5089616;28;20019;-71
2023/07/22 02:52:33;;;;;;;57.50;8.23;;;42.60;26.80;;;;;;5088999;28;20082;-69
2023/07/22 02:55:08;;;;;;;36.17;4.65;;;42.40;31.00;;;;;;5087834;28;20012;-66
2023/07/22 02:57:35;;;;;;;25.77;4.10;;;42.30;27.70;;;;;;5089127;28;20081;-68
2023/07/22 03:00:07;;;;;;;45.17;5.10;;;42.20;25.60;;;;;;5090008;28;20104;-68
2023/07/22 03:02:34;;;;;;;49.53;9.15;;;42.10;26.50;;;;;;5085972;28;20388;-72
2023/07/22 03:05:00;;;;;;;38.20;6.75;;;42.00;28.70;;;;;;5087289;28;20088;-70
2023/07/22 03:07:27;;;;;;;36.75;5.80;;;41.90;27.50;;;;;;5088243;28;20156;-69
2023/07/22 03:09:53;;;;;;;46.40;7.15;;;41.80;29.80;;;;;;5089569;28;20008;-70
2023/07/22 03:12:20;;;;;;;51.28;7.53;;;41.80;40.90;;;;;;5088269;28;20103;-71
2023/07/22 03:14:46;;;;;;;54.45;8.48;;;41.50;42.20;;;;;;5089339;28;20341;-70
2023/07/22 03:17:16;;;;;;;51.35;6.78;;;41.30;43.30;;;;;;5084595;28;20012;-72
2023/07/22 03:19:42;;;;;;;26.85;7.35;;;41.20;35.00;;;;;;5088087;28;20062;-73
2023/07/22 03:22:09;;;;;;;30.10;5.65;;;41.10;32.20;;;;;;5089641;28;20016;-73
2023/07/22 03:24:36;;;;;;;158.50;14.07;;;41.00;29.80;;;;;;5086955;28;20050;-69
2023/07/22 03:27:02;;;;;;;51.47;6.40;;;41.00;34.30;;;;;;5087413;28;20466;-74
2023/07/22 03:29:29;;;;;;;51.13;6.68;;;40.90;31.10;;;;;;5085100;28;20040;-73
2023/07/22 03:31:57;;;;;;;30.10;6.22;;;40.80;32.10;;;;;;5086647;28;20020;-71
2023/07/22 03:34:23;;;;;;;36.03;6.88;;;40.80;33.70;;;;;;5086751;28;20472;-73
2023/07/22 03:36:50;;;;;;;37.28;6.78;;;40.80;36.80;;;;;;5089912;28;20024;-74
2023/07/22 03:39:16;;;;;;;55.22;6.97;;;40.70;35.00;;;;;;5084296;28;20012;-74
2023/07/22 03:41:43;;;;;;;28.48;5.88;;;40.60;33.00;;;;;;5082862;28;20380;-73
2023/07/22 03:44:09;;;;;;;38.17;6.65;;;40.80;30.70;;;;;;5082231;28;20024;-72
2023/07/22 03:46:35;;;;;;;30.52;5.65;;;40.70;31.30;;;;;;5086104;28;20022;-73
2023/07/22 03:49:02;;;;;;;48.92;6.60;;;40.70;30.00;;;;;;5093779;28;20715;-68
2023/07/22 03:51:28;;;;;;;43.78;7.03;;;40.70;31.20;;;;;;5084196;28;20514;-69
2023/07/22 03:53:55;;;;;;;26.58;5.05;;;40.60;32.70;;;;;;5091055;28;20633;-68
2023/07/22 03:56:23;;;;;;;82.25;24.58;;;40.60;31.60;;;;;;5083476;28;20016;-69
2023/07/22 03:58:50;;;;;;;67.05;31.80;;;40.50;33.10;;;;;;5080897;28;20035;-68
2023/07/22 04:01:17;;;;;;;46.10;11.70;;;40.30;33.00;;;;;;5085100;28;20023;-72
2023/07/22 04:03:43;;;;;;;49.35;7.55;;;40.30;31.80;;;;;;5086822;28;20032;-72
2023/07/22 04:06:09;;;;;;;33.35;6.75;;;40.20;34.40;;;;;;5089010;27;20492;-68
2023/07/22 04:08:36;;;;;;;38.25;5.70;;;40.10;40.30;;;;;;5090053;28;20070;-69
2023/07/22 04:11:02;;;;;;;55.13;7.78;;;40.00;42.60;;;;;;5089751;28;21521;-67
2023/07/22 04:13:30;;;;;;;47.38;6.43;;;39.80;45.70;;;;;;5087994;28;20028;-68
2023/07/22 04:15:57;;;;;;;35.78;5.97;;;39.70;45.50;;;;;;5088777;28;20106;-69
2023/07/22 04:18:23;;;;;;;70.93;8.40;;;39.60;44.60;;;;;;5089149;28;20019;-75
2023/07/22 04:20:57;;;;;;;39.35;7.63;;;39.60;46.10;;;;;;5079943;28;20020;-73
2023/07/22 04:23:23;;;;;;;62.78;8.95;;;39.40;48.20;;;;;;5082085;28;20024;-73
2023/07/22 04:25:50;;;;;;;36.08;6.82;;;39.30;49.00;;;;;;5089375;28;20055;-73
2023/07/22 04:28:16;;;;;;;26.65;6.35;;;39.20;48.10;;;;;;5088061;28;20016;-72
2023/07/22 04:30:43;;;;;;;33.90;6.63;;;39.10;47.20;;;;;;5089948;28;20194;-70
2023/07/22 04:33:12;;;;;;;42.45;7.60;;;39.00;49.50;;;;;;5088305;28;20053;-71
2023/07/22 04:35:40;;;;;;;61.92;8.32;;;38.80;50.20;;;;;;5087461;28;20364;-73
2023/07/22 04:38:07;;;;;;;31.15;6.00;;;38.70;50.10;;;;;;5088986;28;20020;-76
2023/07/22 04:40:33;;;;;;;43.15;7.25;;;38.70;49.30;;;;;;5089045;28;20234;-74
2023/07/22 04:43:00;;;;;;;51.42;7.22;;;38.60;50.60;;;;;;5087691;28;20035;-75
2023/07/22 04:45:27;;;;;;;65.28;8.77;;;38.50;51.80;;;;;;5086449;28;20020;-74
2023/07/22 04:47:53;;;;;;;61.47;9.27;;;38.50;51.00;;;;;;5086890;28;20422;-76
2023/07/22 04:50:19;;;;;;;49.55;7.50;;;38.40;50.90;;;;;;5087599;28;20027;-73
2023/07/22 04:52:47;;;;;;;46.63;9.48;;;38.30;50.00;;;;;;5083645;28;20375;-72
2023/07/22 04:55:14;;;;;;;60.40;8.45;;;38.30;51.90;;;;;;5069260;28;20432;-72
2023/07/22 04:57:42;;;;;;;52.83;8.27;;;38.20;51.70;;;;;;5087671;28;20046;-68
2023/07/22 05:00:18;;;;;;;31.33;7.32;;;38.10;52.90;;;;;;5085807;28;20039;-66
2023/07/22 05:02:46;;;;;;;28.27;6.15;;;38.00;53.10;;;;;;5082640;28;20055;-68
2023/07/22 05:05:13;;;;;;;36.67;6.57;;;37.90;52.00;;;;;;5087451;28;20905;-70
2023/07/22 05:07:39;;;;;;;31.05;7.10;;;37.90;53.80;;;;;;5088034;28;20514;-71
2023/07/22 05:10:11;;;;;;;26.13;8.00;;;37.70;54.10;;;;;;5086802;28;20020;-71
2023/07/22 05:12:41;;;;;;;31.98;6.32;;;37.60;53.70;;;;;;5086278;28;20060;-77
2023/07/22 05:15:10;;;;;;;38.55;5.65;;;37.60;52.80;;;;;;5087902;28;20153;-72
2023/07/22 05:17:36;;;;;;;27.17;5.72;;;37.50;53.70;;;;;;5086404;28;20151;-75
2023/07/22 05:20:09;;;;;;;22.77;5.78;;;37.50;53.60;;;;;;5078855;28;20085;-73
2023/07/22 05:22:36;;;;;;;34.10;7.63;;;37.40;53.70;;;;;;5087141;28;20567;-70
2023/07/22 05:25:04;;;;;;;23.55;4.72;;;37.40;52.90;;;;;;5087793;28;20586;-71
2023/07/22 05:27:30;;;;;;;23.50;5.38;;;37.30;52.70;;;;;;5083856;28;20089;-72
2023/07/22 05:29:57;;;;;;;19.90;4.45;;;37.30;52.80;;;;;;5085891;28;20072;-70
2023/07/22 05:32:23;;;;;;;25.77;5.32;;;37.30;53.20;;;;;;5086299;28;20140;-71
2023/07/22 05:34:50;;;;;;;17.63;7.18;;;37.30;53.20;;;;;;5086446;28;20101;-71
2023/07/22 05:37:16;;;;;;;24.35;6.97;;;37.20;53.10;;;;;;5086310;28;20078;-73
2023/07/22 05:39:42;;;;;;;15.45;5.25;;;37.20;53.60;;;;;;5086744;28;20065;-72
2023/07/22 05:42:09;;;;;;;30.67;5.60;;;37.10;53.50;;;;;;5076828;28;20064;-73
2023/07/22 05:44:35;;;;;;;16.02;5.50;;;37.10;53.70;;;;;;5077566;28;20071;-73
2023/07/22 05:47:01;;;;;;;27.20;5.50;;;37.00;54.00;;;;;;5088275;28;20631;-73
2023/07/22 05:49:28;;;;;;;29.08;7.00;;;37.00;54.10;;;;;;5087623;28;20068;-74
2023/07/22 05:51:54;;;;;;;20.63;5.57;;;37.00;54.90;;;;;;5080426;28;20057;-72
2023/07/22 05:54:22;;;;;;;27.83;6.13;;;36.90;55.10;;;;;;5086361;28;20123;-71
2023/07/22 05:56:48;;;;;;;30.13;7.63;;;36.80;55.80;;;;;;5086703;28;20161;-71
2023/07/22 05:59:14;;;;;;;53.45;8.60;;;36.70;56.00;;;;;;5085878;28;20066;-72
2023/07/22 06:01:41;;;;;;;23.73;6.57;;;36.70;56.20;;;;;;5086110;28;20588;-70
2023/07/22 06:04:08;;;;;;;26.50;7.47;;;36.80;56.30;;;;;;5086542;28;20084;-71
2023/07/22 06:06:35;;;;;;;38.72;8.40;;;36.70;56.60;;;;;;5087200;28;20065;-69
2023/07/22 06:09:01;;;;;;;27.33;8.40;;;36.60;56.60;;;;;;5086842;28;20051;-73
2023/07/22 06:11:28;;;;;;;82.05;10.65;;;36.60;56.70;;;;;;5088900;28;20070;-74
2023/07/22 06:13:55;;;;;;;33.45;8.32;;;36.50;57.80;;;;;;5086918;28;20072;-70
2023/07/22 06:16:21;;;;;;;34.33;7.95;;;36.60;58.40;;;;;;5085852;28;20075;-67
2023/07/22 06:18:48;;;;;;;40.20;9.30;;;36.50;58.90;;;;;;5077941;28;20112;-69
2023/07/22 06:21:14;;;;;;;31.40;8.02;;;36.40;59.90;;;;;;5084779;28;20079;-66
2023/07/22 06:23:41;;;;;;;30.77;7.95;;;36.40;60.00;;;;;;5086563;28;20150;-67
2023/07/22 06:26:08;;;;;;;26.20;7.90;;;36.30;60.50;;;;;;5087984;28;20534;-67
2023/07/22 06:28:34;;;;;;;36.83;7.95;;;36.20;61.30;;;;;;5085029;28;20168;-68
2023/07/22 06:31:01;;;;;;;34.45;8.68;;;36.10;61.40;;;;;;5083281;28;20756;-68
2023/07/22 06:33:27;;;;;;;25.60;7.97;;;36.10;61.70;;;;;;5083818;28;20068;-68
2023/07/22 06:35:54;;;;;;;33.08;8.50;;;36.10;62.50;;;;;;5086730;28;20063;-69
2023/07/22 06:38:20;;;;;;;38.25;9.35;;;36.00;63.20;;;;;;5086208;28;20123;-67
2023/07/22 06:40:46;;;;;;;40.78;9.82;;;36.00;63.50;;;;;;5086249;28;20590;-67
2023/07/22 06:43:13;;;;;;;35.70;9.63;;;35.80;64.00;;;;;;5085929;28;20451;-67
2023/07/22 06:45:39;;;;;;;29.90;7.85;;;35.80;64.90;;;;;;5085871;28;20786;-67
2023/07/22 06:48:06;;;;;;;30.13;8.70;;;35.80;66.50;;;;;;5088824;28;20527;-66
2023/07/22 06:50:32;;;;;;;38.30;10.73;;;35.70;65.90;;;;;;5089403;28;20721;-66
2023/07/22 06:52:58;;;;;;;32.30;10.88;;;35.70;66.00;;;;;;5089326;28;20078;-66
2023/07/22 06:55:25;;;;;;;35.15;11.38;;;35.60;67.40;;;;;;5090254;28;20069;-67
2023/07/22 06:57:51;;;;;;;33.35;11.65;;;35.50;66.90;;;;;;5089956;28;20080;-69
2023/07/22 07:00:17;;;;;;;44.15;11.32;;;35.50;67.20;;;;;;5088426;28;20571;-68
2023/07/22 07:02:44;;;;;;;28.20;11.98;;;35.50;67.40;;;;;;5088589;28;20227;-64
2023/07/22 07:05:10;;;;;;;35.70;11.23;;;35.40;67.60;;;;;;5088586;28;20131;-66
2023/07/22 07:07:37;;;;;;;27.73;12.20;;;35.50;68.00;;;;;;5088308;28;20075;-66
2023/07/22 07:10:03;;;;;;;21.50;11.02;;;35.40;68.20;;;;;;5088545;28;20071;-65
2023/07/22 07:12:30;;;;;;;26.75;10.15;;;35.30;68.90;;;;;;5087169;28;20561;-67
2023/07/22 07:14:56;;;;;;;24.65;9.20;;;35.30;69.00;;;;;;5090518;28;20441;-67
2023/07/22 07:17:22;;;;;;;30.85;8.95;;;35.20;69.30;;;;;;5080308;28;20084;-68
2023/07/22 07:19:49;;;;;;;28.42;8.05;;;35.20;69.80;;;;;;5091440;28;20076;-66
2023/07/22 07:22:16;;;;;;;22.33;6.82;;;35.10;69.80;;;;;;5090386;28;20542;-68
2023/07/22 07:24:42;;;;;;;22.70;7.18;;;35.10;70.10;;;;;;5091766;28;20151;-67
2023/07/22 07:27:09;;;;;;;30.05;8.63;;;35.10;70.30;;;;;;5089286;28;20072;-69
2023/07/22 07:29:35;;;;;;;29.63;8.70;;;35.10;70.40;;;;;;5085743;28;20077;-66
2023/07/22 07:32:01;;;;;;;24.25;8.00;;;35.00;70.80;;;;;;5087142;28;20155;-68
2023/07/22 07:34:28;;;;;;;27.48;8.73;;;35.00;71.00;;;;;;5090087;28;20551;-67
2023/07/22 07:36:54;;;;;;;29.65;9.10;;;35.00;71.40;;;;;;5092423;28;20145;-68
2023/07/22 07:39:20;;;;;;;29.60;8.88;;;34.90;71.40;;;;;;5089392;28;20096;-66
2023/07/22 07:41:47;;;;;;;28.42;8.95;;;34.90;71.60;;;;;;5091070;28;20085;-66
2023/07/22 07:44:13;;;;;;;23.17;9.50;;;34.90;71.80;;;;;;5088820;28;20093;-68
2023/07/22 07:46:40;;;;;;;24.63;9.32;;;34.80;72.10;;;;;;5088967;28;20069;-69
2023/07/22 07:49:06;;;;;;;25.60;8.60;;;34.80;72.70;;;;;;5090105;28;20578;-69
2023/07/22 07:51:33;;;;;;;24.73;8.95;;;34.80;73.20;;;;;;5087671;28;20080;-70
2023/07/22 07:54:00;;;;;;;18.13;8.02;;;34.70;73.60;;;;;;5088611;28;20079;-66
2023/07/22 07:56:26;;;;;;;25.85;8.65;;;34.70;74.10;;;;;;5089534;28;20073;-67
2023/07/22 07:58:54;;;;;;;23.88;8.20;;;34.70;74.80;;;;;;5088044;28;20091;-68
2023/07/22 08:01:21;;;;;;;24.95;8.25;;;34.60;75.30;;;;;;5083607;28;20154;-67
2023/07/22 08:03:48;;;;;;;19.20;8.75;;;34.60;75.80;;;;;;5085116;28;20475;-69
2023/07/22 08:06:14;;;;;;;21.15;8.30;;;34.50;76.40;;;;;;5085533;28;20084;-66
2023/07/22 08:08:41;;;;;;;22.98;8.63;;;34.50;77.00;;;;;;5085490;28;20082;-65
2023/07/22 08:11:15;;;;;;;21.63;8.43;;;34.40;77.70;;;;;;5084632;28;20155;-67
2023/07/22 08:13:43;;;;;;;17.80;6.90;;;34.30;78.50;;;;;;5085670;28;20160;-67
2023/07/22 08:16:11;;;;;;;17.45;5.72;;;34.30;79.00;;;;;;5084245;28;20080;-69
2023/07/22 08:18:38;;;;;;;24.23;6.30;;;34.20;79.60;;;;;;5087906;28;20102;-67
2023/07/22 08:21:09;;;;;;;21.67;6.47;;;34.20;80.30;;;;;;5088124;28;20077;-67
2023/07/22 08:23:36;;;;;;;20.48;6.70;;;34.20;81.00;;;;;;5088904;28;20095;-68
2023/07/22 08:26:05;;;;;;;25.33;7.38;;;34.10;81.90;;;;;;5089926;28;20776;-69
2023/07/22 08:28:32;;;;;;;29.65;7.88;;;34.10;82.70;;;;;;5088403;28;20551;-68
2023/07/22 08:31:00;;;;;;;20.42;5.25;;;34.10;83.30;;;;;;5089875;28;20085;-69
2023/07/22 08:33:26;;;;;;;23.75;5.38;;;34.00;84.70;;;;;;5091566;28;20094;-66
2023/07/22 08:35:53;;;;;;;16.70;5.10;;;33.90;85.60;;;;;;5091099;28;20115;-66
2023/07/22 08:38:19;;;;;;;16.10;4.32;;;33.90;86.60;;;;;;5088302;28;20085;-69
2023/07/22 08:40:51;;;;;;;24.40;4.97;;;33.80;87.80;;;;;;5089884;28;20079;-69
2023/07/22 08:43:20;;;;;;;16.05;4.80;;;33.70;89.20;;;;;;5081787;28;20097;-67
2023/07/22 08:45:52;;;;;;;16.45;4.38;;;33.70;90.30;;;;;;5089115;28;20558;-67
2023/07/22 08:48:18;;;;;;;17.83;5.03;;;33.70;90.70;;;;;;5088036;28;20110;-68
2023/07/22 08:50:53;;;;;;;17.25;4.65;;;33.70;91.20;;;;;;5089208;28;20162;-67
2023/07/22 08:53:19;;;;;;;24.55;4.70;;;33.70;91.70;;;;;;5090008;28;20078;-70
2023/07/22 08:55:50;;;;;;;22.67;4.43;;;33.50;92.20;;;;;;5088706;28;20075;-67
2023/07/22 08:58:16;;;;;;;23.83;4.25;;;33.40;92.80;;;;;;5088215;28;20154;-67
2023/07/22 09:00:43;;;;;;;24.13;4.38;;;33.50;93.40;;;;;;5088394;28;20078;-68
2023/07/22 09:03:11;;;;;;;15.77;3.95;;;33.50;93.90;;;;;;5087094;28;20199;-67
2023/07/22 09:05:38;;;;;;;18.60;3.97;;;33.40;94.30;;;;;;5088414;28;20564;-68
2023/07/22 09:08:07;;;;;;;22.70;3.78;;;33.40;94.50;;;;;;5084614;28;20140;-67
2023/07/22 09:10:34;;;;;;;20.45;4.38;;;33.40;94.70;;;;;;5086609;28;20553;-68
2023/07/22 09:13:01;;;;;;;33.28;4.45;;;33.30;94.70;;;;;;5088693;28;20095;-69
2023/07/22 09:15:28;;;;;;;23.55;3.63;;;33.20;94.90;;;;;;5087439;28;20074;-65
2023/07/22 09:17:55;;;;;;;27.00;4.03;;;33.20;95.00;;;;;;5082107;28;20080;-68
2023/07/22 09:20:22;;;;;;;22.35;3.47;;;33.10;94.90;;;;;;5079137;28;20085;-68
2023/07/22 09:22:51;;;;;;;34.75;4.50;;;33.10;94.50;;;;;;5086653;28;20085;-66
2023/07/22 09:25:25;;;;;;;60.92;5.28;;;33.00;94.00;;;;;;5086804;28;20091;-70
2023/07/22 09:27:54;;;;;;;34.97;4.07;;;32.90;93.20;;;;;;5088708;28;20414;-66
2023/07/22 09:31:01;;;;;;;43.10;4.72;;;32.90;93.20;;;;;;5087291;28;20914;-71
2023/07/22 09:33:27;;;;;;;40.40;3.90;;;32.90;92.80;;;;;;5007010;28;20097;-70
2023/07/22 09:35:55;;;;;;;31.83;4.05;;;33.00;91.60;;;;;;5007002;28;20081;-66
2023/07/22 09:38:25;;;;;;;30.00;3.63;;;33.00;91.30;;;;;;5003937;28;20118;-66
2023/07/22 09:40:52;;;;;;;38.00;4.63;;;33.10;91.30;;;;;;5002070;28;20080;-67
2023/07/22 09:43:19;;;;;;;47.40;4.53;;;33.00;91.10;;;;;;5005376;28;20097;-65
2023/07/22 09:45:48;;;;;;;18.05;3.40;;;33.10;91.10;;;;;;5002910;28;20172;-64
2023/07/22 09:48:15;;;;;;;32.42;3.85;;;33.10;91.00;;;;;;5006513;28;20090;-64
2023/07/22 09:50:41;;;;;;;25.00;3.65;;;33.10;90.90;;;;;;5007765;28;20097;-66
2023/07/22 09:53:07;;;;;;;32.25;4.35;;;33.20;90.70;;;;;;5004419;28;20091;-66
2023/07/22 09:55:34;;;;;;;31.58;3.70;;;33.10;90.30;;;;;;5006086;28;20092;-64
2023/07/22 09:58:03;;;;;;;23.48;3.33;;;33.10;90.10;;;;;;5007682;28;20184;-65
2023/07/22 10:00:31;;;;;;;40.83;5.13;;;33.10;89.90;;;;;;5003628;28;20550;-68
2023/07/22 10:02:59;;;;;;;18.67;5.90;;;33.20;88.90;;;;;;5005782;28;20124;-67
2023/07/22 10:05:28;;;;;;;25.10;5.65;;;33.20;88.40;;;;;;5003649;28;20078;-66
2023/07/22 10:07:58;;;;;;;22.58;6.32;;;33.20;87.70;;;;;;5006097;28;20596;-66
2023/07/22 10:10:38;;;;;;;24.58;6.78;;;33.20;87.00;;;;;;5072742;28;20454;-67
2023/07/22 10:13:05;;;;;;;18.50;5.97;;;33.20;87.40;;;;;;5087666;28;20635;-64
2023/07/22 10:15:35;;;;;;;20.10;5.68;;;33.30;87.40;;;;;;5086539;28;20075;-66
2023/07/22 10:18:04;;;;;;;27.92;5.10;;;33.20;87.80;;;;;;5089372;28;20079;-66
2023/07/22 10:20:34;;;;;;;20.45;4.53;;;33.20;88.10;;;;;;5088046;28;20155;-67
2023/07/22 10:23:01;;;;;;;18.58;4.63;;;33.30;88.10;;;;;;5092918;28;20123;-70
2023/07/22 10:25:28;;;;;;;15.40;4.82;;;33.30;88.40;;;;;;5091859;28;20101;-65
2023/07/22 10:27:55;;;;;;;16.88;4.20;;;33.40;88.50;;;;;;5091750;28;20088;-67
2023/07/22 10:30:21;;;;;;;13.73;4.63;;;33.40;88.40;;;;;;5092549;28;20079;-67
2023/07/22 10:32:50;;;;;;;23.15;4.65;;;33.50;88.80;;;;;;5088549;28;21976;-66
2023/07/22 10:35:32;;;;;;;27.48;5.13;;;33.40;88.20;;;;;;5090483;28;20107;-66
2023/07/22 10:38:08;;;;;;;19.50;5.07;;;33.50;86.90;;;;;;5091104;28;20086;-64
2023/07/22 10:40:51;;;;;;;15.35;4.65;;;33.50;86.20;;;;;;5092430;28;20080;-66
2023/07/22 10:43:23;;;;;;;16.27;4.68;;;33.60;84.50;;;;;;5092011;28;20155;-66
2023/07/22 10:45:51;;;;;;;12.88;4.28;;;33.70;83.60;;;;;;5091413;28;20087;-68
2023/07/22 10:48:18;;;;;;;14.25;5.45;;;33.70;82.00;;;;;;5090021;28;20089;-67
2023/07/22 10:51:17;;;;;;;19.73;5.40;;;33.80;81.80;;;;;;5092473;28;20071;-67
2023/07/22 10:53:48;;;;;;;16.55;3.90;;;33.80;80.60;;;;;;5090966;28;20098;-65
2023/07/22 10:56:24;;;;;;;15.35;4.10;;;33.80;80.00;;;;;;5092621;28;20075;-67
2023/07/22 10:58:50;;;;;;;;;;;33.90;79.50;;;;;;5094137;28;20072;-68
2023/07/22 11:01:28;;;;;;;13.40;5.13;;;33.90;79.10;;;;;;5092545;28;19973;-66
2023/07/22 11:04:13;;;;;;;16.65;5.90;;;34.00;78.40;;;;;;5090501;28;20075;-65
2023/07/22 11:06:40;;;;;;;19.45;6.55;;;34.00;77.70;;;;;;5089828;28;20446;-68
2023/07/22 11:09:07;;;;;;;17.08;6.10;;;34.10;76.60;;;;;;5093418;28;20083;-68
2023/07/22 11:11:41;;;;;;;21.33;6.57;;;34.10;75.60;;;;;;5092205;28;20211;-67
2023/07/22 11:14:18;;;;;;;20.73;7.03;;;34.20;75.80;;;;;;5091605;28;20083;-67
2023/07/22 11:16:47;;;;;;;25.38;8.32;;;34.10;76.20;;;;;;5090820;28;20499;-67
2023/07/22 11:19:15;;;;;;;25.08;10.00;;;34.10;76.30;;;;;;5089428;28;20568;-66
2023/07/22 11:21:46;;;;;;;26.98;9.95;;;34.10;76.40;;;;;;5090138;28;20078;-66
2023/07/22 11:24:13;;;;;;;27.08;9.02;;;34.00;77.00;;;;;;5090497;28;20169;-69
2023/07/22 11:26:40;;;;;;;24.48;6.90;;;34.00;76.10;;;;;;5090348;28;20385;-65
2023/07/22 11:29:08;;;;;;;14.45;4.95;;;34.10;75.50;;;;;;5092672;28;20082;-66
2023/07/22 11:31:37;;;;;;;15.10;4.43;;;34.10;74.70;;;;;;5091445;28;20097;-68
2023/07/22 11:34:04;;;;;;;13.70;3.38;;;34.10;74.60;;;;;;5090304;28;20608;-66
2023/07/22 11:36:31;;;;;;;12.23;3.50;;;34.10;74.00;;;;;;5090995;28;20070;-66
2023/07/22 11:39:13;;;;;;;9.85;3.08;;;34.10;73.70;;;;;;5086980;28;20077;-67
2023/07/22 11:41:43;;;;;;;9.15;2.83;;;34.10;73.30;;;;;;5092450;28;20076;-67
2023/07/22 11:44:13;;;;;;;15.57;3.30;;;34.10;73.70;;;;;;5090344;28;20080;-66
2023/07/22 11:46:57;;;;;;;9.98;2.60;;;34.20;73.40;;;;;;5089175;28;20612;-67
2023/07/22 11:49:29;;;;;;;13.40;2.78;;;34.20;73.40;;;;;;5088681;28;20130;-66
2023/07/22 11:51:57;;;;;;;9.82;3.03;;;34.20;74.10;;;;;;5085700;28;20178;-69
2023/07/22 11:54:24;;;;;;;11.55;3.33;;;34.20;74.50;;;;;;5088578;28;20107;-67
2023/07/22 11:56:50;;;;;;;9.82;2.83;;;34.20;74.80;;;;;;5090091;28;20087;-67
2023/07/22 11:59:17;;;;;;;12.38;3.40;;;34.20;74.90;;;;;;5090240;28;20077;-66
2023/07/22 12:01:45;;;;;;;9.32;2.83;;;34.10;74.80;;;;;;5090609;28;20653;-66
2023/07/22 12:04:15;;;;;;;10.80;3.33;;;34.10;75.10;;;;;;5090641;28;20081;-66
2023/07/22 12:06:41;;;;;;;10.13;3.05;;;34.10;76.50;;;;;;5090293;28;20080;-66
2023/07/22 12:09:10;;;;;;;11.63;3.38;;;34.10;76.90;;;;;;5090638;28;20073;-66
2023/07/22 12:11:36;;;;;;;12.65;3.42;;;34.10;76.80;;;;;;5090588;28;20169;-68
2023/07/22 12:14:14;;;;;;;13.65;4.63;;;34.00;77.10;;;;;;5088854;28;20090;-68
2023/07/22 12:16:41;;;;;;;17.15;4.63;;;34.00;78.10;;;;;;5089889;28;20475;-67
2023/07/22 12:19:09;;;;;;;17.02;4.90;;;34.00;79.00;;;;;;5089138;28;20075;-65
2023/07/22 12:21:36;;;;;;;16.27;4.18;;;33.80;80.80;;;;;;5088605;28;20066;-67
2023/07/22 12:24:04;;;;;;;19.55;4.43;;;33.90;81.60;;;;;;5089015;28;20111;-68
2023/07/22 12:26:30;;;;;;;14.75;4.60;;;33.80;82.40;;;;;;5088813;28;20514;-66
2023/07/22 12:28:57;;;;;;;9.80;3.67;;;33.80;82.90;;;;;;5092460;28;20129;-66
2023/07/22 12:31:23;;;;;;;15.57;3.88;;;33.80;83.90;;;;;;5092013;28;20097;-64
2023/07/22 12:33:50;;;;;;;11.57;3.95;;;33.80;84.40;;;;;;5090151;28;20090;-66
2023/07/22 12:36:16;;;;;;;15.23;4.05;;;33.80;85.30;;;;;;5090491;28;20161;-66
2023/07/22 12:38:43;;;;;;;13.77;4.45;;;33.70;85.60;;;;;;5089130;28;20503;-67
2023/07/22 12:41:09;;;;;;;16.00;4.15;;;33.50;86.10;;;;;;5089608;28;20120;-67
2023/07/22 12:43:35;;;;;;;19.35;4.47;;;33.50;86.70;;;;;;5089556;28;20555;-68